createdAt,value
2018-09-11T20:18:56.112Z,51.54
2018-09-11T20:19:42.673Z,51.54
2018-09-11T20:20:29.226Z,50.77
2018-09-11T20:21:15.810Z,50.67
2018-09-11T20:22:02.397Z,50.96
2018-09-11T20:22:48.999Z,50.96
2018-09-11T20:23:35.591Z,50.57
2018-09-11T20:24:22.182Z,50.96
2018-09-11T20:25:08.754Z,50.87
2018-09-11T20:25:55.358Z,50.7
2018-09-11T20:26:41.932Z,50.99
2018-09-11T20:27:28.502Z,50.5
2018-09-11T20:28:15.072Z,50.99
2018-09-11T20:50:40.379Z,45.47
2018-09-11T20:51:26.941Z,45.37
2018-09-11T20:52:13.500Z,45.07
2018-09-11T20:53:00.075Z,45.85
2018-09-11T20:53:46.641Z,46.89
2018-09-11T20:54:33.207Z,47.02
2018-09-11T20:55:19.782Z,47.98
2018-09-11T20:56:06.449Z,47.79
2018-09-11T20:56:52.986Z,47.69
2018-09-11T20:57:39.560Z,47.79
2018-09-11T20:58:26.138Z,47.98
2018-09-11T20:59:12.690Z,47.89
2018-09-11T20:59:59.255Z,47.89
2018-09-11T21:00:45.835Z,47.72
2018-09-11T21:01:32.415Z,48
2018-09-11T21:02:19.011Z,47.89
2018-09-11T21:05:28.970Z,49.15
2018-09-11T21:06:15.543Z,48.85
2018-09-11T21:07:02.128Z,49.41
2018-09-11T21:07:48.708Z,49.32
2018-09-11T21:08:35.277Z,49.51
2018-09-11T21:09:21.835Z,49.41
2018-09-11T21:10:08.410Z,49.61
2018-09-11T21:10:54.999Z,49.51
2018-09-11T21:11:41.577Z,49.61
2018-09-11T21:12:28.160Z,49.51
2018-09-11T21:13:14.740Z,49.51
2018-09-11T21:14:01.344Z,49.51
2018-09-11T21:14:47.920Z,49.8
2018-09-11T21:15:34.490Z,49.8
2018-09-11T21:16:21.064Z,49.8
2018-09-11T21:17:07.655Z,49.99
2018-09-11T21:17:54.235Z,50.19
2018-09-11T21:18:40.805Z,49.99
2018-09-11T21:19:27.369Z,50.09
2018-09-11T21:20:13.937Z,50.09
2018-09-11T21:21:00.511Z,50.02
